createdAt,value
2023-01-25T00:01:09.729Z,14.63
2023-01-25T00:03:41.363Z,12.83
2023-01-25T00:06:11.651Z,12.13
2023-01-25T00:08:41.028Z,11.70
2023-01-25T00:11:10.099Z,11.93
2023-01-25T00:13:41.651Z,11.10
2023-01-25T00:16:09.123Z,12.47
2023-01-25T00:18:38.728Z,14.03
2023-01-25T00:21:21.089Z,11.80
2023-01-25T00:23:51.550Z,11.87
2023-01-25T00:26:19.826Z,11.90
2023-01-25T00:28:51.632Z,13.53
2023-01-25T00:31:32.186Z,12.23
2023-01-25T00:34:24.871Z,11.47
2023-01-25T00:37:22.939Z,12.87
2023-01-25T00:39:50.135Z,11.23
2023-01-25T00:42:19.849Z,12.03
2023-01-25T00:44:49.513Z,12.80
2023-01-25T00:47:21.104Z,10.00
2023-01-25T00:49:48.163Z,10.13
2023-01-25T00:52:20.731Z,13.13
2023-01-25T00:54:50.404Z,10.50
2023-01-25T00:57:17.246Z,10.07
2023-01-25T00:59:44.664Z,14.53
2023-01-25T01:02:15.034Z,11.87
2023-01-25T01:04:46.924Z,12.23
2023-01-25T01:07:17.655Z,13.80
2023-01-25T01:09:47.703Z,13.20
2023-01-25T01:12:16.664Z,13.17
2023-01-25T01:14:50.689Z,11.67
2023-01-25T01:17:19.767Z,11.83
2023-01-25T01:19:49.885Z,11.73
2023-01-25T01:22:19.353Z,12.07
2023-01-25T01:24:49.507Z,11.77
2023-01-25T01:27:18.366Z,12.20
2023-01-25T01:29:47.898Z,13.20
2023-01-25T01:32:14.830Z,14.23
2023-01-25T01:34:41.890Z,13.10
2023-01-25T01:37:11.861Z,11.40
2023-01-25T01:39:41.971Z,11.13
2023-01-25T01:42:11.289Z,11.23
2023-01-25T01:44:59.338Z,11.37
2023-01-25T01:47:40.241Z,7.87
2023-01-25T01:50:21.136Z,12.80
2023-01-25T01:52:50.326Z,13.17
2023-01-25T01:55:24.840Z,11.20
2023-01-25T01:57:59.378Z,11.53
2023-01-25T10:08:30.875Z,19.43
2023-01-25T10:11:16.749Z,17.70
2023-01-25T10:13:44.893Z,15.47
2023-01-25T10:16:27.418Z,16.17
2023-01-25T10:19:34.537Z,13.87
2023-01-25T21:06:52.688Z,13.97
2023-01-25T21:09:26.074Z,18.00
2023-01-25T21:11:55.008Z,20.07
2023-01-25T21:14:26.300Z,19.87
2023-01-25T21:16:55.600Z,22.70
2023-01-25T21:19:24.569Z,22.93
2023-01-25T21:21:51.402Z,21.90
2023-01-25T21:24:20.529Z,23.97
2023-01-25T21:26:47.476Z,23.90
2023-01-25T21:29:21.039Z,24.60
2023-01-25T21:31:52.984Z,23.47
2023-01-25T21:34:22.454Z,25.43
2023-01-25T21:36:51.513Z,24.87
2023-01-25T21:39:20.687Z,26.03
2023-01-25T21:41:47.739Z,26.03
2023-01-25T21:44:33.030Z,23.43
2023-01-25T21:47:28.821Z,26.77
2023-01-25T21:50:08.298Z,28.67
2023-01-25T21:52:36.382Z,28.07
2023-01-25T21:55:06.567Z,25.97
2023-01-25T21:57:35.921Z,28.23
2023-01-25T22:00:05.057Z,26.23
2023-01-25T22:02:34.494Z,25.53
2023-01-25T22:05:01.446Z,29.90
2023-01-25T22:07:35.029Z,25.60
2023-01-25T22:10:01.920Z,27.43
2023-01-25T22:12:28.718Z,25.97
2023-01-25T22:14:55.595Z,24.60
2023-01-25T22:17:25.684Z,26.73
2023-01-25T22:19:52.540Z,25.83
2023-01-25T22:22:19.371Z,27.37
2023-01-25T22:24:48.577Z,25.97
2023-01-25T22:27:18.078Z,25.37
2023-01-25T22:29:47.189Z,27.47
2023-01-25T22:32:14.031Z,24.93
2023-01-25T22:34:43.116Z,25.67
2023-01-25T22:37:12.005Z,25.00
2023-01-25T22:39:39.163Z,25.70
2023-01-25T22:42:06.034Z,24.17
2023-01-25T22:44:37.531Z,26.77
2023-01-25T22:47:04.375Z,26.17
2023-01-25T22:49:33.509Z,25.70
2023-01-25T22:52:00.410Z,27.83
2023-01-25T22:54:29.592Z,28.57
2023-01-25T22:56:56.504Z,27.77
2023-01-25T22:59:23.315Z,29.33
2023-01-25T23:01:57.280Z,27.30
2023-01-25T23:04:28.946Z,27.87
2023-01-25T23:07:02.701Z,27.47
2023-01-25T23:09:32.142Z,30.93
2023-01-25T23:12:03.768Z,26.87
2023-01-25T23:14:51.113Z,25.77
2023-01-25T23:17:43.656Z,24.87
2023-01-25T23:20:12.590Z,21.53
2023-01-25T23:22:39.990Z,21.07
2023-01-25T23:25:11.095Z,22.90
2023-01-25T23:27:38.269Z,20.47
2023-01-25T23:30:07.185Z,22.20
2023-01-25T23:32:34.077Z,21.00
2023-01-25T23:35:03.390Z,22.10
2023-01-25T23:37:32.809Z,21.83
2023-01-25T23:40:01.964Z,20.93
2023-01-25T23:42:31.069Z,17.63
2023-01-25T23:45:00.093Z,20.77
2023-01-25T23:47:28.932Z,17.00
2023-01-25T23:50:06.173Z,18.47
2023-01-25T23:52:33.180Z,18.60
2023-01-25T23:55:02.120Z,20.43
2023-01-25T23:57:29.296Z,21.30
2023-01-25T23:59:58.617Z,21.87
